Marine-shuttle — JG4603 — position and weather

sailwx.info

Track history (hours):
 
Tides and Currents Weather Stations Pressure Air Temp Water Temp Dewpoint Dewpoint Depression Visibility Wind Speed Wind Dir Waves Ship Positions

Marine-shuttle

Last reported at 2018-Feb-21 05:30 UTC. Time now 2018-Feb-21 05:42 UTC.
Position N 35°27' E 139°39'.

Length 49 m; draft 2.8 m.

Type: Passenger vessel. MMSI: 431000517.

Date/timePositionNaut miles runAvg speedWind from/ knotsBaromVisibWave heightAir tempDewpointWater temp
2018-Feb-21 05:30N 35°27' E 139°39'2 3.8
2018-Feb-21 05:01N 35°27' E 139°41'2 3.9
2018-Feb-21 04:30N 35°27' E 139°39'0 0.0
2018-Feb-21 04:00N 35°27' E 139°39'0 0.0
2018-Feb-21 03:30N 35°27' E 139°39'2 4.5
2018-Feb-21 03:00N 35°27' E 139°42'2 4.5
2018-Feb-21 02:30N 35°27' E 139°39'0 0.0
2018-Feb-21 02:00N 35°27' E 139°39'0 0.0
2018-Feb-21 01:30N 35°27' E 139°39'0 0.0
2018-Feb-21 01:00N 35°27' E 139°39'0 0.0
2018-Feb-20 10:59N 35°27' E 139°39'3 6.0
2018-Feb-20 10:30N 35°28' E 139°42'3 6.0
2018-Feb-20 10:00N 35°27' E 139°39'0 1.0
2018-Feb-20 09:30N 35°27' E 139°39'0 0.0
2018-Feb-20 09:01N 35°27' E 139°39'1 1.9
2018-Feb-20 08:30N 35°27' E 139°40'1 1.8
2018-Feb-20 07:59N 35°27' E 139°39'0 0.1
2018-Feb-20 07:30N 35°27' E 139°39'2 3.6
2018-Feb-20 07:01N 35°27' E 139°41'2 3.6
2018-Feb-20 06:30N 35°27' E 139°39'0 0.0
2018-Feb-20 06:00N 35°27' E 139°39'1 1.9
2018-Feb-20 05:30N 35°28' E 139°40'1 2.6
2018-Feb-20 05:01N 35°27' E 139°41'2 3.2
2018-Feb-20 04:30N 35°27' E 139°39'0 0.0
2018-Feb-20 04:00N 35°27' E 139°39'0 0.4
2018-Feb-20 03:30N 35°27' E 139°39'2 3.5
2018-Feb-20 03:00N 35°27' E 139°41'2 3.6
2018-Feb-20 02:30N 35°27' E 139°39'0 0.0
2018-Feb-20 02:00N 35°27' E 139°39'0 0.0
2018-Feb-20 01:30N 35°27' E 139°39'0 0.0
2018-Feb-20 01:00N 35°27' E 139°39'0 0.0
2018-Feb-19 10:49N 35°27' E 139°39'2 6.5
2018-Feb-19 10:30N 35°28' E 139°41'2 4.6
2018-Feb-19 10:01N 35°27' E 139°39'1 1.0
2018-Feb-19 09:30N 35°27' E 139°39'0 0.0
2018-Feb-19 09:00N 35°27' E 139°39'1 1.9
2018-Feb-19 08:30N 35°27' E 139°40'1 1.9
2018-Feb-19 08:00N 35°27' E 139°39'0 0.3
2018-Feb-19 07:30N 35°27' E 139°39'2 3.4
2018-Feb-19 07:00N 35°27' E 139°41'2 3.6
2018-Feb-19 06:30N 35°27' E 139°39'0 0.0
2018-Feb-19 06:00N 35°27' E 139°39'0 0.8
2018-Feb-19 05:30N 35°27' E 139°39'2 3.3
2018-Feb-19 05:00N 35°27' E 139°41'2 3.5
2018-Feb-19 04:30N 35°27' E 139°39'0 0.0
2018-Feb-19 04:00N 35°27' E 139°39'0 0.1
2018-Feb-19 03:30N 35°27' E 139°39'2 3.6
2018-Feb-19 03:00N 35°27' E 139°41'2 3.7
2018-Feb-19 02:30N 35°27' E 139°39'2 3.8
2018-Feb-19 02:00N 35°28' E 139°41'1 1.8
2018-Feb-19 01:30N 35°27' E 139°40'1 2.0
2018-Feb-19 01:00N 35°27' E 139°39'0 0.0
2018-Feb-19 00:30N 35°27' E 139°39'0 0.0
2018-Feb-18 10:49N 35°27' E 139°39'2 6.5
2018-Feb-18 10:30N 35°28' E 139°41'2 4.6
2018-Feb-18 10:01N 35°27' E 139°39'0 0.9
2018-Feb-18 09:30N 35°27' E 139°39'0 0.0
2018-Feb-18 09:00N 35°27' E 139°39'0 0.0
2018-Feb-18 08:30N 35°27' E 139°39'1 1.7
2018-Feb-18 08:00N 35°28' E 139°39'1 1.6
2018-Feb-18 07:29N 35°27' E 139°39'2 3.2
2018-Feb-18 07:01N 35°27' E 139°41'2 3.1
2018-Feb-18 06:30N 35°27' E 139°39'1 1.1
2018-Feb-18 06:01N 35°27' E 139°39'3 5.0
2018-Feb-18 05:30N 35°27' E 139°42'2 4.8
2018-Feb-18 05:00N 35°27' E 139°39'1 1.6
2018-Feb-18 04:30N 35°27' E 139°40'1 1.6
2018-Feb-18 04:00N 35°27' E 139°39'0 0.1
2018-Feb-18 03:30N 35°27' E 139°39'2 3.5
2018-Feb-18 03:00N 35°27' E 139°41'2 3.5
2018-Feb-18 02:30N 35°27' E 139°39'1 2.4
2018-Feb-18 02:00N 35°28' E 139°40'0 0.7
2018-Feb-18 01:30N 35°27' E 139°40'1 2.1
2018-Feb-18 00:59N 35°27' E 139°39'0 0.0
2018-Feb-18 00:30N 35°27' E 139°39'0 0.0
2018-Feb-17 10:57N 35°27' E 139°39'1 2.4
2018-Feb-17 10:31N 35°28' E 139°39'3 6.1
2018-Feb-17 10:00N 35°28' E 139°42'3 5.8
2018-Feb-17 09:30N 35°27' E 139°39'0 0.0
2018-Feb-17 09:00N 35°27' E 139°39'0 0.0
2018-Feb-17 08:30N 35°27' E 139°39'0 0.0
2018-Feb-17 08:00N 35°27' E 139°39'0 0.0
2018-Feb-17 07:31N 35°27' E 139°39'0 0.0
2018-Feb-17 07:00N 35°27' E 139°39'0 0.0
2018-Feb-17 06:30N 35°27' E 139°39'1 1.1
2018-Feb-17 06:00N 35°27' E 139°39'2 4.8
2018-Feb-17 05:30N 35°27' E 139°42'2 4.6
2018-Feb-17 04:59N 35°27' E 139°39'1 1.9
2018-Feb-17 04:30N 35°27' E 139°40'1 1.8
2018-Feb-17 04:00N 35°27' E 139°39'0 0.9
2018-Feb-17 03:30N 35°27' E 139°39'1 2.8
2018-Feb-17 03:00N 35°27' E 139°41'2 3.1
2018-Feb-17 02:30N 35°27' E 139°39'1 2.0
2018-Feb-17 02:00N 35°28' E 139°40'0 0.8
2018-Feb-17 01:30N 35°27' E 139°40'1 0.1
2018-Feb-16 10:58N 35°27' E 139°39'3 6.1
2018-Feb-16 10:31N 35°28' E 139°42'3 5.5
2018-Feb-16 10:01N 35°27' E 139°39'0 0.9
2018-Feb-16 09:30N 35°27' E 139°39'0 0.0
2018-Feb-16 08:59N 35°27' E 139°39'1 1.8
2018-Feb-16 08:31N 35°27' E 139°40'1 1.7
2018-Feb-16 08:01N 35°27' E 139°39'0 0.8
2018-Feb-16 07:31N 35°27' E 139°39'1 2.9
2018-Feb-16 07:01N 35°27' E 139°41'2 3.2
2018-Feb-16 06:31N 35°27' E 139°39'0 0.0
2018-Feb-16 06:01N 35°27' E 139°39'0 0.0
2018-Feb-16 05:30N 35°27' E 139°39'2 4.3
2018-Feb-16 05:01N 35°27' E 139°42'2 4.3
2018-Feb-16 04:30N 35°27' E 139°39'0 0.0
2018-Feb-16 04:00N 35°27' E 139°39'0 0.2
2018-Feb-16 03:31N 35°27' E 139°39'2 3.8
2018-Feb-16 03:01N 35°27' E 139°41'2 3.9
2018-Feb-16 02:30N 35°27' E 139°39'1 2.5
2018-Feb-16 02:01N 35°28' E 139°40'0 0.9
2018-Feb-16 01:31N 35°27' E 139°40'1 1.9
2018-Feb-16 01:01N 35°27' E 139°39'0 0.0
2018-Feb-16 00:31N 35°27' E 139°39'0 0.0
2018-Feb-15 08:58N 35°27' E 139°39'1 2.0
2018-Feb-15 08:30N 35°27' E 139°40'1 1.8
2018-Feb-15 08:00N 35°27' E 139°39'0 0.1
2018-Feb-15 07:30N 35°27' E 139°39'2 4.2
2018-Feb-15 07:01N 35°27' E 139°42'2 4.2
2018-Feb-15 06:30N 35°27' E 139°39'0 0.0
2018-Feb-15 06:00N 35°27' E 139°39'0 0.0
2018-Feb-15 05:30N 35°27' E 139°39'0 0.0
2018-Feb-15 05:00N 35°27' E 139°39'0 0.0
2018-Feb-15 04:30N 35°27' E 139°39'0 0.0
2018-Feb-15 04:00N 35°27' E 139°39'0 0.0
2018-Feb-15 03:30N 35°27' E 139°39'0 0.0
2018-Feb-15 03:01N 35°27' E 139°39'0 0.0
2018-Feb-15 02:29N 35°27' E 139°39'4 7.5
2018-Feb-15 02:00N 35°26' E 139°43'510.1
2018-Feb-15 01:31N 35°21' E 139°43'510.7
2018-Feb-15 01:00N 35°16' E 139°46'510.0
2018-Feb-15 00:30N 35°11' E 139°46'510.2
2018-Feb-14 23:58N 35°08' E 139°41'  
Track history (hours):
 
Tides and Currents Weather Stations Pressure Air Temp Water Temp Dewpoint Dewpoint Depression Visibility Wind Speed Wind Dir Waves Ship Positions

Marine-shuttle

Last reported at 2018-Feb-21 05:30 UTC. Time now 2018-Feb-21 05:42 UTC.
Position N 35°27' E 139°39'.

Length 49 m; draft 2.8 m.

Type: Passenger vessel. MMSI: 431000517.

Date/timePositionNaut miles runAvg speedWind from/ knotsBaromVisibWave heightAir tempDewpointWater temp
2018-Feb-21 05:30N 35°27' E 139°39'2 3.8
2018-Feb-21 05:01N 35°27' E 139°41'2 3.9
2018-Feb-21 04:30N 35°27' E 139°39'0 0.0
2018-Feb-21 04:00N 35°27' E 139°39'0 0.0
2018-Feb-21 03:30N 35°27' E 139°39'2 4.5
2018-Feb-21 03:00N 35°27' E 139°42'2 4.5
2018-Feb-21 02:30N 35°27' E 139°39'0 0.0
2018-Feb-21 02:00N 35°27' E 139°39'0 0.0
2018-Feb-21 01:30N 35°27' E 139°39'0 0.0
2018-Feb-21 01:00N 35°27' E 139°39'0 0.0
2018-Feb-20 10:59N 35°27' E 139°39'3 6.0
2018-Feb-20 10:30N 35°28' E 139°42'3 6.0
2018-Feb-20 10:00N 35°27' E 139°39'0 1.0
2018-Feb-20 09:30N 35°27' E 139°39'0 0.0
2018-Feb-20 09:01N 35°27' E 139°39'1 1.9
2018-Feb-20 08:30N 35°27' E 139°40'1 1.8
2018-Feb-20 07:59N 35°27' E 139°39'0 0.1
2018-Feb-20 07:30N 35°27' E 139°39'2 3.6
2018-Feb-20 07:01N 35°27' E 139°41'2 3.6
2018-Feb-20 06:30N 35°27' E 139°39'0 0.0
2018-Feb-20 06:00N 35°27' E 139°39'1 1.9
2018-Feb-20 05:30N 35°28' E 139°40'1 2.6
2018-Feb-20 05:01N 35°27' E 139°41'2 3.2
2018-Feb-20 04:30N 35°27' E 139°39'0 0.0
2018-Feb-20 04:00N 35°27' E 139°39'0 0.4
2018-Feb-20 03:30N 35°27' E 139°39'2 3.5
2018-Feb-20 03:00N 35°27' E 139°41'2 3.6
2018-Feb-20 02:30N 35°27' E 139°39'0 0.0
2018-Feb-20 02:00N 35°27' E 139°39'0 0.0
2018-Feb-20 01:30N 35°27' E 139°39'0 0.0
2018-Feb-20 01:00N 35°27' E 139°39'0 0.0
2018-Feb-19 10:49N 35°27' E 139°39'2 6.5
2018-Feb-19 10:30N 35°28' E 139°41'2 4.6
2018-Feb-19 10:01N 35°27' E 139°39'1 1.0
2018-Feb-19 09:30N 35°27' E 139°39'0 0.0
2018-Feb-19 09:00N 35°27' E 139°39'1 1.9
2018-Feb-19 08:30N 35°27' E 139°40'1 1.9
2018-Feb-19 08:00N 35°27' E 139°39'0 0.3
2018-Feb-19 07:30N 35°27' E 139°39'2 3.4
2018-Feb-19 07:00N 35°27' E 139°41'2 3.6
2018-Feb-19 06:30N 35°27' E 139°39'0 0.0
2018-Feb-19 06:00N 35°27' E 139°39'0 0.8
2018-Feb-19 05:30N 35°27' E 139°39'2 3.3
2018-Feb-19 05:00N 35°27' E 139°41'2 3.5
2018-Feb-19 04:30N 35°27' E 139°39'0 0.0
2018-Feb-19 04:00N 35°27' E 139°39'0 0.1
2018-Feb-19 03:30N 35°27' E 139°39'2 3.6
2018-Feb-19 03:00N 35°27' E 139°41'2 3.7
2018-Feb-19 02:30N 35°27' E 139°39'2 3.8
2018-Feb-19 02:00N 35°28' E 139°41'1 1.8
2018-Feb-19 01:30N 35°27' E 139°40'1 2.0
2018-Feb-19 01:00N 35°27' E 139°39'0 0.0
2018-Feb-19 00:30N 35°27' E 139°39'0 0.0
2018-Feb-18 10:49N 35°27' E 139°39'2 6.5
2018-Feb-18 10:30N 35°28' E 139°41'2 4.6
2018-Feb-18 10:01N 35°27' E 139°39'0 0.9
2018-Feb-18 09:30N 35°27' E 139°39'0 0.0
2018-Feb-18 09:00N 35°27' E 139°39'0 0.0
2018-Feb-18 08:30N 35°27' E 139°39'1 1.7
2018-Feb-18 08:00N 35°28' E 139°39'1 1.6
2018-Feb-18 07:29N 35°27' E 139°39'2 3.2
2018-Feb-18 07:01N 35°27' E 139°41'2 3.1
2018-Feb-18 06:30N 35°27' E 139°39'1 1.1
2018-Feb-18 06:01N 35°27' E 139°39'3 5.0
2018-Feb-18 05:30N 35°27' E 139°42'2 4.8
2018-Feb-18 05:00N 35°27' E 139°39'1 1.6
2018-Feb-18 04:30N 35°27' E 139°40'1 1.6
2018-Feb-18 04:00N 35°27' E 139°39'0 0.1
2018-Feb-18 03:30N 35°27' E 139°39'2 3.5
2018-Feb-18 03:00N 35°27' E 139°41'2 3.5
2018-Feb-18 02:30N 35°27' E 139°39'1 2.4
2018-Feb-18 02:00N 35°28' E 139°40'0 0.7
2018-Feb-18 01:30N 35°27' E 139°40'1 2.1
2018-Feb-18 00:59N 35°27' E 139°39'0 0.0
2018-Feb-18 00:30N 35°27' E 139°39'0 0.0
2018-Feb-17 10:57N 35°27' E 139°39'1 2.4
2018-Feb-17 10:31N 35°28' E 139°39'3 6.1
2018-Feb-17 10:00N 35°28' E 139°42'3 5.8
2018-Feb-17 09:30N 35°27' E 139°39'0 0.0
2018-Feb-17 09:00N 35°27' E 139°39'0 0.0
2018-Feb-17 08:30N 35°27' E 139°39'0 0.0
2018-Feb-17 08:00N 35°27' E 139°39'0 0.0
2018-Feb-17 07:31N 35°27' E 139°39'0 0.0
2018-Feb-17 07:00N 35°27' E 139°39'0 0.0
2018-Feb-17 06:30N 35°27' E 139°39'1 1.1
2018-Feb-17 06:00N 35°27' E 139°39'2 4.8
2018-Feb-17 05:30N 35°27' E 139°42'2 4.6
2018-Feb-17 04:59N 35°27' E 139°39'1 1.9
2018-Feb-17 04:30N 35°27' E 139°40'1 1.8
2018-Feb-17 04:00N 35°27' E 139°39'0 0.9
2018-Feb-17 03:30N 35°27' E 139°39'1 2.8
2018-Feb-17 03:00N 35°27' E 139°41'2 3.1
2018-Feb-17 02:30N 35°27' E 139°39'1 2.0
2018-Feb-17 02:00N 35°28' E 139°40'0 0.8
2018-Feb-17 01:30N 35°27' E 139°40'1 0.1
2018-Feb-16 10:58N 35°27' E 139°39'3 6.1
2018-Feb-16 10:31N 35°28' E 139°42'3 5.5
2018-Feb-16 10:01N 35°27' E 139°39'0 0.9
2018-Feb-16 09:30N 35°27' E 139°39'0 0.0
2018-Feb-16 08:59N 35°27' E 139°39'1 1.8
2018-Feb-16 08:31N 35°27' E 139°40'1 1.7
2018-Feb-16 08:01N 35°27' E 139°39'0 0.8
2018-Feb-16 07:31N 35°27' E 139°39'1 2.9
2018-Feb-16 07:01N 35°27' E 139°41'2 3.2
2018-Feb-16 06:31N 35°27' E 139°39'0 0.0
2018-Feb-16 06:01N 35°27' E 139°39'0 0.0
2018-Feb-16 05:30N 35°27' E 139°39'2 4.3
2018-Feb-16 05:01N 35°27' E 139°42'2 4.3
2018-Feb-16 04:30N 35°27' E 139°39'0 0.0
2018-Feb-16 04:00N 35°27' E 139°39'0 0.2
2018-Feb-16 03:31N 35°27' E 139°39'2 3.8
2018-Feb-16 03:01N 35°27' E 139°41'2 3.9
2018-Feb-16 02:30N 35°27' E 139°39'1 2.5
2018-Feb-16 02:01N 35°28' E 139°40'0 0.9
2018-Feb-16 01:31N 35°27' E 139°40'1 1.9
2018-Feb-16 01:01N 35°27' E 139°39'0 0.0
2018-Feb-16 00:31N 35°27' E 139°39'0 0.0
2018-Feb-15 08:58N 35°27' E 139°39'1 2.0
2018-Feb-15 08:30N 35°27' E 139°40'1 1.8
2018-Feb-15 08:00N 35°27' E 139°39'0 0.1
2018-Feb-15 07:30N 35°27' E 139°39'2 4.2
2018-Feb-15 07:01N 35°27' E 139°42'2 4.2
2018-Feb-15 06:30N 35°27' E 139°39'0 0.0
2018-Feb-15 06:00N 35°27' E 139°39'0 0.0
2018-Feb-15 05:30N 35°27' E 139°39'0 0.0
2018-Feb-15 05:00N 35°27' E 139°39'0 0.0
2018-Feb-15 04:30N 35°27' E 139°39'0 0.0
2018-Feb-15 04:00N 35°27' E 139°39'0 0.0
2018-Feb-15 03:30N 35°27' E 139°39'0 0.0
2018-Feb-15 03:01N 35°27' E 139°39'0 0.0
2018-Feb-15 02:29N 35°27' E 139°39'4 7.5
2018-Feb-15 02:00N 35°26' E 139°43'510.1
2018-Feb-15 01:31N 35°21' E 139°43'510.7
2018-Feb-15 01:00N 35°16' E 139°46'510.0
2018-Feb-15 00:30N 35°11' E 139°46'510.2
2018-Feb-14 23:58N 35°08' E 139°41'  

Dump ship's entire track history